Time;durP1;ratioP1;P1;durP2;ratioP2;P2;SDS_P1;SDS_P2;PMS_P1;PMS_P2;Temp;Humidity;BMP_temperature;BMP_pressure;BME280_temperature;BME280_humidity;BME280_pressure;Samples;Min_cycle;Max_cycle;Signal;HPM_P1;HPM_P2
2023/09/25 00:02:04;;;;;;;33.13;4.47;;;;;;;13.03;100.00;99494.06;5027580;28;20043;-85
2023/09/25 00:04:39;;;;;;;33.13;4.85;;;;;;;13.01;100.00;99488.09;5039208;28;20047;-86
2023/09/25 00:07:05;;;;;;;19.65;5.65;;;;;;;13.01;100.00;99493.41;5050478;28;20032;-86
2023/09/25 00:09:31;;;;;;;24.90;4.20;;;;;;;13.00;100.00;99486.47;5039245;28;20028;-83
2023/09/25 00:12:03;;;;;;;26.38;4.53;;;;;;;13.03;100.00;99496.69;5058368;28;20062;-87
2023/09/25 00:14:29;;;;;;;23.10;4.40;;;;;;;13.12;100.00;99501.91;5053001;28;20032;-87
2023/09/25 00:16:55;;;;;;;31.38;5.00;;;;;;;13.13;100.00;99498.25;5057750;28;20058;-85
2023/09/25 00:19:28;;;;;;;28.23;5.10;;;;;;;13.11;100.00;99503.75;5054990;28;20055;-87
2023/09/25 00:21:54;;;;;;;23.85;4.38;;;;;;;13.09;100.00;99494.31;5065355;28;20460;-86
2023/09/25 00:24:20;;;;;;;30.40;5.65;;;;;;;13.18;100.00;99511.78;5063508;27;20521;-85
2023/09/25 00:26:46;;;;;;;36.38;5.70;;;;;;;13.20;100.00;99516.91;5096355;28;20039;-84
2023/09/25 00:29:14;;;;;;;25.40;4.60;;;;;;;13.17;100.00;99522.59;5058516;28;20027;-86
2023/09/25 00:31:40;;;;;;;27.27;4.63;;;;;;;13.13;100.00;99508.84;5075065;28;20036;-85
2023/09/25 00:34:08;;;;;;;29.48;5.10;;;;;;;13.18;100.00;99518.91;5055470;28;20036;-86
2023/09/25 00:36:38;;;;;;;28.60;3.95;;;;;;;13.11;100.00;99508.22;5089265;28;20069;-87
2023/09/25 00:39:08;;;;;;;32.15;5.43;;;;;;;13.13;100.00;99516.81;5090239;28;20107;-86
2023/09/25 00:41:39;;;;;;;28.20;4.45;;;;;;;13.12;100.00;99515.19;5069534;27;20042;-87
2023/09/25 00:44:05;;;;;;;25.35;4.45;;;;;;;13.14;100.00;99516.63;5055888;28;20103;-86
2023/09/25 00:46:41;;;;;;;25.88;4.15;;;;;;;13.08;100.00;99501.47;5054009;28;20055;-86
2023/09/25 00:49:08;;;;;;;34.35;5.57;;;;;;;13.14;100.00;99515.81;5058989;28;20034;-86
2023/09/25 00:51:35;;;;;;;31.25;4.57;;;;;;;13.07;100.00;99515.75;5060921;28;20032;-86
2023/09/25 00:54:06;;;;;;;26.77;4.63;;;;;;;13.02;100.00;99512.81;5061872;28;20024;-85
2023/09/25 00:56:35;;;;;;;22.63;3.83;;;;;;;13.09;100.00;99534.94;5063120;28;20035;-87
2023/09/25 00:59:02;;;;;;;32.55;4.75;;;;;;;13.11;100.00;99540.03;5072542;28;20024;-86
2023/09/25 01:01:28;;;;;;;25.45;4.82;;;;;;;13.11;100.00;99532.09;5091994;28;20035;-86
2023/09/25 01:03:53;;;;;;;30.55;4.80;;;;;;;13.10;100.00;99541.91;5070078;28;20521;-86
2023/09/25 01:06:21;;;;;;;24.83;5.32;;;;;;;13.09;100.00;99542.09;5085571;27;20035;-87
2023/09/25 01:08:47;;;;;;;26.45;5.50;;;;;;;13.14;100.00;99542.34;5055857;28;20046;-87
2023/09/25 01:11:13;;;;;;;28.52;4.88;;;;;;;13.16;100.00;99558.91;5071295;28;20031;-87
2023/09/25 01:13:38;;;;;;;28.17;4.47;;;;;;;13.14;100.00;99545.81;5079751;28;20502;-86
2023/09/25 01:16:04;;;;;;;30.55;4.45;;;;;;;13.10;100.00;99533.94;5058722;28;20036;-87
2023/09/25 01:18:30;;;;;;;34.08;5.65;;;;;;;13.13;100.00;99541.53;5049666;28;20032;-86
2023/09/25 01:20:57;;;;;;;34.25;5.53;;;;;;;13.10;100.00;99539.25;5078172;28;20047;-86
2023/09/25 01:23:23;;;;;;;23.52;4.95;;;;;;;13.14;100.00;99543.16;5074187;28;20024;-88
2023/09/25 01:25:49;;;;;;;26.77;5.07;;;;;;;13.17;100.00;99546.47;5052775;28;20495;-84
2023/09/25 01:28:18;;;;;;;31.48;5.13;;;;;;;13.16;100.00;99553.59;5075772;28;20484;-86
2023/09/25 01:30:44;;;;;;;34.75;5.80;;;;;;;13.14;100.00;99558.25;5069993;28;20068;-88
2023/09/25 01:33:11;;;;;;;33.92;4.13;;;;;;;13.11;100.00;99555.97;5054552;28;20036;-84
2023/09/25 01:35:37;;;;;;;35.70;5.70;;;;;;;13.08;100.00;99551.88;5055231;28;20036;-87
2023/09/25 01:38:06;;;;;;;30.73;4.45;;;;;;;13.13;100.00;99560.09;5085700;28;20078;-87
2023/09/25 01:40:32;;;;;;;28.50;5.32;;;;;;;13.06;100.00;99543.25;5070961;28;20032;-87
2023/09/25 01:42:59;;;;;;;28.95;4.93;;;;;;;13.05;100.00;99538.97;5075117;28;20042;-84
2023/09/25 01:45:25;;;;;;;27.48;4.85;;;;;;;13.09;100.00;99542.09;5093789;28;20039;-86
2023/09/25 01:47:52;;;;;;;29.63;4.65;;;;;;;13.07;100.00;99544.91;5077553;28;20053;-87
2023/09/25 01:50:23;;;;;;;25.00;4.35;;;;;;;13.06;100.00;99551.22;5076099;28;20023;-86
2023/09/25 01:52:59;;;;;;;25.02;4.43;;;;;;;13.02;100.00;99553.44;5067868;28;20039;-88
2023/09/25 01:55:35;;;;;;;33.85;4.90;;;;;;;13.00;100.00;99574.00;5074992;28;20126;-87
2023/09/25 01:58:02;;;;;;;26.13;4.80;;;;;;;12.98;100.00;99573.34;5056254;28;20088;-86
2023/09/25 02:00:28;;;;;;;30.35;5.13;;;;;;;12.97;100.00;99576.19;5074074;28;20598;-88
2023/09/25 02:02:54;;;;;;;29.48;4.85;;;;;;;12.93;100.00;99572.25;5072908;28;20089;-84
2023/09/25 02:05:20;;;;;;;25.88;4.43;;;;;;;12.92;100.00;99565.28;5063940;28;20055;-88
2023/09/25 02:07:46;;;;;;;36.22;5.45;;;;;;;12.89;100.00;99566.47;5073261;28;20176;-89
2023/09/25 02:10:11;;;;;;;28.67;4.80;;;;;;;12.94;100.00;99573.88;5075183;28;20043;-84
2023/09/25 02:12:37;;;;;;;31.75;4.40;;;;;;;12.91;100.00;99580.41;5097013;28;20034;-86
2023/09/25 02:15:05;;;;;;;30.15;5.43;;;;;;;12.94;100.00;99573.88;5061436;28;20563;-89
2023/09/25 02:17:33;;;;;;;32.10;5.30;;;;;;;12.90;100.00;99582.22;5085571;28;20497;-86
2023/09/25 02:20:16;;;;;;;25.58;4.15;;;;;;;12.91;100.00;99577.75;5079970;28;20036;-85
2023/09/25 02:22:44;;;;;;;30.30;5.13;;;;;;;12.89;100.00;99572.63;5095651;28;20028;-85
2023/09/25 02:25:10;;;;;;;29.92;4.88;;;;;;;12.90;100.00;99573.44;5073793;28;20050;-85
2023/09/25 02:27:36;;;;;;;39.17;5.63;;;;;;;12.90;100.00;99570.78;5091606;28;20043;-85
2023/09/25 02:30:03;;;;;;;37.88;5.68;;;;;;;12.89;100.00;99577.91;5086778;28;20028;-79
2023/09/25 02:32:29;;;;;;;41.08;5.07;;;;;;;12.88;100.00;99578.91;5070440;28;20379;-83
2023/09/25 02:34:55;;;;;;;38.15;4.80;;;;;;;12.89;100.00;99571.78;5074033;28;20035;-83
2023/09/25 02:37:21;;;;;;;28.35;4.38;;;;;;;12.91;100.00;99569.78;5064361;28;20589;-84
2023/09/25 02:39:47;;;;;;;27.77;4.35;;;;;;;12.91;100.00;99569.78;5086133;28;20483;-84
2023/09/25 02:42:12;;;;;;;25.60;5.35;;;;;;;12.92;100.00;99563.47;5073850;27;20036;-85
2023/09/25 02:44:39;;;;;;;27.33;4.47;;;;;;;12.93;100.00;99572.25;5073549;28;20513;-82
2023/09/25 02:47:05;;;;;;;30.15;5.32;;;;;;;12.90;100.00;99568.94;5056660;28;20032;-77
2023/09/25 02:49:30;;;;;;;34.03;5.25;;;;;;;12.88;100.00;99568.31;5067619;28;20031;-83
2023/09/25 02:51:56;;;;;;;23.42;4.18;;;;;;;12.88;100.00;99573.59;5102495;27;20031;-84
2023/09/25 02:54:22;;;;;;;39.83;5.50;;;;;;;12.88;100.00;99572.81;5095669;28;20035;-78
2023/09/25 02:56:48;;;;;;;26.88;3.88;;;;;;;12.86;100.00;99565.03;5100328;28;20035;-79
2023/09/25 02:59:13;;;;;;;30.35;5.13;;;;;;;12.85;100.00;99563.38;5093622;28;20028;-79
2023/09/25 03:01:39;;;;;;;30.13;5.40;;;;;;;12.85;100.00;99565.22;5074998;27;20539;-81
2023/09/25 03:04:05;;;;;;;36.38;4.80;;;;;;;12.83;100.00;99565.38;5066219;28;20023;-78
2023/09/25 03:06:31;;;;;;;30.33;4.72;;;;;;;12.83;100.00;99577.81;5107977;28;20039;-82
2023/09/25 03:08:56;;;;;;;26.08;3.85;;;;;;;12.84;100.00;99576.81;5090498;28;20032;-79
2023/09/25 03:11:22;;;;;;;21.80;4.20;;;;;;;12.85;100.00;99575.81;5072885;28;20044;-79
2023/09/25 03:13:49;;;;;;;28.00;4.30;;;;;;;12.84;100.00;99579.44;5071605;28;20039;-78
2023/09/25 03:16:16;;;;;;;29.08;4.22;;;;;;;12.82;100.00;99595.53;5075272;28;20032;-78
2023/09/25 03:18:42;;;;;;;23.35;4.97;;;;;;;12.83;100.00;99601.69;5048551;28;20149;-82
2023/09/25 03:21:11;;;;;;;28.85;4.50;;;;;;;12.83;100.00;99599.03;5086941;28;20403;-82
2023/09/25 03:23:38;;;;;;;26.40;4.22;;;;;;;12.82;100.00;99614.09;5087671;27;20044;-78
2023/09/25 03:26:03;;;;;;;25.95;4.35;;;;;;;12.85;100.00;99612.94;5107937;28;20027;-80
2023/09/25 03:28:29;;;;;;;28.10;4.38;;;;;;;12.87;100.00;99610.91;5117404;27;20034;-80
2023/09/25 03:30:54;;;;;;;30.52;4.45;;;;;;;12.89;100.00;99604.44;5108018;28;20395;-80
2023/09/25 03:33:27;;;;;;;32.38;5.18;;;;;;;12.95;100.00;99605.53;5088169;28;20040;-81
2023/09/25 03:35:53;;;;;;;25.20;4.75;;;;;;;12.92;100.00;99605.06;5075270;28;20091;-80
2023/09/25 03:38:19;;;;;;;31.60;5.20;;;;;;;12.96;100.00;99624.94;5103920;28;20032;-80
2023/09/25 03:40:45;;;;;;;37.60;5.28;;;;;;;12.96;100.00;99619.63;5098200;28;20052;-80
2023/09/25 03:43:11;;;;;;;29.27;5.15;;;;;;;12.98;100.00;99621.09;5097080;28;20035;-78
2023/09/25 03:45:36;;;;;;;31.77;6.13;;;;;;;12.99;100.00;99629.88;5091479;27;20042;-80
2023/09/25 03:48:02;;;;;;;27.08;4.63;;;;;;;13.00;100.00;99635.00;5094636;27;20030;-79
2023/09/25 03:50:29;;;;;;;29.08;5.35;;;;;;;13.04;100.00;99630.19;5071818;28;20054;-79
2023/09/25 03:52:58;;;;;;;24.63;4.68;;;;;;;13.04;100.00;99627.53;5082011;27;20039;-79
2023/09/25 03:55:24;;;;;;;31.33;4.40;;;;;;;13.07;100.00;99635.13;5094232;27;20036;-81
2023/09/25 03:57:50;;;;;;;22.88;3.83;;;;;;;13.07;100.00;99637.78;5110548;28;20031;-81
2023/09/25 04:00:16;;;;;;;27.52;5.20;;;;;;;13.10;100.00;99637.41;5114137;27;20027;-80
2023/09/25 04:02:42;;;;;;;28.70;5.38;;;;;;;13.09;100.00;99651.66;5101876;28;20036;-79
2023/09/25 04:05:10;;;;;;;27.38;4.47;;;;;;;13.15;100.00;99660.75;5102412;27;20487;-80
2023/09/25 04:07:35;;;;;;;30.35;4.63;;;;;;;13.12;100.00;99669.06;5080819;27;20036;-80
2023/09/25 04:10:06;;;;;;;25.80;4.55;;;;;;;13.13;100.00;99668.06;5074536;28;20354;-79
2023/09/25 04:12:32;;;;;;;22.98;4.65;;;;;;;13.11;100.00;99681.50;5084785;28;20506;-80
2023/09/25 04:14:58;;;;;;;28.85;4.95;;;;;;;13.15;100.00;99676.66;5084042;28;20464;-81
2023/09/25 04:17:24;;;;;;;38.15;5.07;;;;;;;13.14;100.00;99683.78;5088277;28;20036;-80
2023/09/25 04:19:50;;;;;;;27.50;3.95;;;;;;;13.13;100.00;99682.16;5088479;27;20032;-80
2023/09/25 04:22:16;;;;;;;25.98;4.72;;;;;;;13.14;100.00;99680.31;5092407;28;20533;-80
2023/09/25 04:24:42;;;;;;;28.40;4.50;;;;;;;13.12;100.00;99683.13;5105572;28;20557;-80
2023/09/25 04:27:09;;;;;;;28.85;4.32;;;;;;;13.11;100.00;99691.28;5077586;28;20027;-79
2023/09/25 04:29:36;;;;;;;28.13;5.03;;;;;;;13.10;100.00;99706.41;5103451;28;20039;-78
2023/09/25 04:32:03;;;;;;;27.70;5.30;;;;;;;13.08;100.00;99702.25;5067986;28;20127;-80
2023/09/25 04:34:29;;;;;;;26.40;4.40;;;;;;;13.11;100.00;99708.03;5114290;27;20484;-79
2023/09/25 04:36:55;;;;;;;36.10;5.43;;;;;;;13.11;100.00;99702.72;5089811;28;20080;-79
2023/09/25 04:39:20;;;;;;;34.35;5.32;;;;;;;13.09;100.00;99698.63;5093987;28;20023;-81
2023/09/25 04:41:47;;;;;;;28.30;4.65;;;;;;;13.08;100.00;99707.56;5071109;27;20069;-79
2023/09/25 04:44:13;;;;;;;24.40;4.55;;;;;;;13.06;100.00;99705.09;5074443;28;20047;-81
2023/09/25 04:46:38;;;;;;;33.63;4.70;;;;;;;13.00;100.00;99711.94;5080608;28;20062;-80
2023/09/25 04:49:07;;;;;;;22.80;3.67;;;;;;;12.94;100.00;99704.69;5061375;28;20023;-80
2023/09/25 04:51:34;;;;;;;30.08;4.72;;;;;;;12.92;100.00;99706.69;5087185;28;20044;-79
2023/09/25 04:54:00;;;;;;;23.65;4.15;;;;;;;12.89;100.00;99715.00;5109110;28;20028;-80
2023/09/25 04:56:29;;;;;;;24.30;4.30;;;;;;;12.85;100.00;99716.38;5092655;28;20128;-78
2023/09/25 04:58:55;;;;;;;27.45;4.85;;;;;;;12.84;100.00;99714.72;5075544;28;20367;-79
2023/09/25 05:01:21;;;;;;;23.23;3.67;;;;;;;12.84;100.00;99720.00;5090117;28;20039;-80
2023/09/25 05:03:47;;;;;;;23.77;3.70;;;;;;;12.82;100.00;99720.19;5073494;27;20039;-80
2023/09/25 05:06:12;;;;;;;27.85;4.43;;;;;;;12.77;100.00;99712.75;5084732;28;20043;-78
2023/09/25 05:08:38;;;;;;;26.27;3.80;;;;;;;12.81;100.00;99712.41;5088582;27;20031;-80
2023/09/25 05:11:07;;;;;;;21.70;3.78;;;;;;;12.83;100.00;99724.50;5088159;28;20063;-81
2023/09/25 05:13:33;;;;;;;25.88;4.03;;;;;;;12.76;100.00;99724.38;5091355;28;20052;-81
2023/09/25 05:16:03;;;;;;;26.13;4.85;;;;;;;12.83;100.00;99742.25;5088526;28;20054;-79
2023/09/25 05:18:29;;;;;;;27.13;4.50;;;;;;;12.80;100.00;99740.78;5074910;27;20096;-81
2023/09/25 05:20:57;;;;;;;33.08;3.97;;;;;;;12.80;100.00;99747.91;5091320;28;20116;-81
2023/09/25 05:23:23;;;;;;;26.05;4.30;;;;;;;12.79;100.00;99741.75;5091507;28;20032;-80
2023/09/25 05:25:49;;;;;;;27.98;5.00;;;;;;;12.80;100.00;99746.06;5081371;27;20051;-81
2023/09/25 05:28:14;;;;;;;30.08;4.38;;;;;;;12.80;100.00;99763.81;5108580;28;20542;-80
2023/09/25 05:30:40;;;;;;;30.90;4.55;;;;;;;12.78;100.00;99770.13;5074380;28;20699;-81
2023/09/25 05:33:06;;;;;;;25.10;4.45;;;;;;;12.77;100.00;99768.44;5100661;28;20456;-83
2023/09/25 05:35:32;;;;;;;28.35;5.43;;;;;;;12.77;100.00;99776.41;5090436;28;20036;-81
2023/09/25 05:37:57;;;;;;;33.03;4.90;;;;;;;12.77;100.00;99781.72;5096875;28;20032;-81
2023/09/25 05:40:23;;;;;;;29.92;3.88;;;;;;;12.78;100.00;99777.25;5067197;28;20043;-79
2023/09/25 05:42:49;;;;;;;33.33;4.85;;;;;;;12.74;100.00;99782.06;5068644;28;20123;-79
2023/09/25 05:45:18;;;;;;;31.40;5.50;;;;;;;12.72;100.00;99777.94;5077267;28;20047;-81
2023/09/25 05:47:44;;;;;;;28.45;5.03;;;;;;;12.69;100.00;99783.59;5126613;27;20035;-79
2023/09/25 05:50:11;;;;;;;32.35;5.45;;;;;;;12.71;100.00;99790.38;5080674;28;20032;-80
2023/09/25 05:52:38;;;;;;;28.40;5.13;;;;;;;12.72;100.00;99785.91;5086122;28;20074;-82
2023/09/25 05:55:06;;;;;;;29.75;4.38;;;;;;;12.70;100.00;99794.03;5084913;28;20655;-79
2023/09/25 05:57:32;;;;;;;33.38;4.75;;;;;;;12.67;100.00;99791.72;5072660;28;20511;-79
2023/09/25 05:59:59;;;;;;;31.25;4.30;;;;;;;12.67;100.00;99797.03;5087119;28;20107;-79
2023/09/25 06:02:27;;;;;;;27.35;3.65;;;;;;;12.70;100.00;99799.34;5075691;28;20027;-80
2023/09/25 06:04:53;;;;;;;29.30;4.00;;;;;;;12.70;100.00;99804.63;5071018;28;20154;-79
2023/09/25 06:07:20;;;;;;;23.60;4.47;;;;;;;12.71;100.00;99802.81;5106865;28;20055;-79
2023/09/25 06:09:46;;;;;;;24.77;3.38;;;;;;;12.67;100.00;99798.84;5089544;28;20115;-80
2023/09/25 06:12:13;;;;;;;32.70;5.30;;;;;;;12.64;100.00;99802.69;5105583;27;20118;-81
2023/09/25 06:14:39;;;;;;;32.03;4.45;;;;;;;12.62;100.00;99809.97;5102282;27;20039;-79
2023/09/25 06:17:05;;;;;;;32.78;4.72;;;;;;;12.59;100.00;99816.47;5109622;27;20525;-79
2023/09/25 06:19:31;;;;;;;23.95;4.57;;;;;;;12.54;100.00;99824.09;5090483;27;20118;-80
2023/09/25 06:21:56;;;;;;;26.67;4.50;;;;;;;12.52;100.00;99823.44;5101881;27;20051;-81
2023/09/25 06:24:22;;;;;;;26.85;4.55;;;;;;;12.48;100.00;99822.97;5086436;28;20122;-79
2023/09/25 06:26:49;;;;;;;31.02;4.72;;;;;;;12.47;100.00;99825.81;5061290;27;20101;-80
2023/09/25 06:29:15;;;;;;;32.42;5.70;;;;;;;12.45;100.00;99841.88;5089733;27;20035;-79
2023/09/25 06:31:41;;;;;;;35.45;5.80;;;;;;;12.44;100.00;99842.84;5089231;28;20035;-79
2023/09/25 06:34:08;;;;;;;37.22;4.57;;;;;;;12.45;100.00;99855.13;5098188;27;20036;-78
2023/09/25 06:36:34;;;;;;;29.02;4.93;;;;;;;12.45;100.00;99847.19;5089506;27;20050;-79
2023/09/25 06:39:01;;;;;;;29.75;4.57;;;;;;;12.46;100.00;99856.78;5074730;27;20484;-78
2023/09/25 06:41:27;;;;;;;37.13;5.25;;;;;;;12.45;100.00;99878.97;5101739;28;20035;-79
2023/09/25 06:43:55;;;;;;;32.47;4.97;;;;;;;12.45;100.00;99868.38;5068743;28;20196;-79
2023/09/25 06:46:22;;;;;;;33.17;4.88;;;;;;;12.49;100.00;99874.13;5085962;28;20039;-79
2023/09/25 06:48:50;;;;;;;26.02;4.38;;;;;;;12.45;100.00;99867.53;5051044;28;20035;-78
2023/09/25 06:51:19;;;;;;;28.80;4.70;;;;;;;12.50;100.00;99870.50;5097793;27;20414;-78
2023/09/25 06:53:45;;;;;;;27.85;4.38;;;;;;;12.47;100.00;99873.50;5085273;28;20438;-78
2023/09/25 06:56:11;;;;;;;26.10;4.65;;;;;;;12.47;100.00;99873.50;5102818;27;20027;-77
2023/09/25 06:58:37;;;;;;;27.20;5.10;;;;;;;12.48;100.00;99888.41;5089398;27;20050;-78
2023/09/25 07:01:03;;;;;;;31.98;5.50;;;;;;;12.47;100.00;99887.56;5080207;28;20361;-79
2023/09/25 07:03:29;;;;;;;36.60;5.53;;;;;;;12.50;100.00;99889.88;5086220;27;20074;-78
2023/09/25 07:05:56;;;;;;;28.27;4.32;;;;;;;12.50;100.00;99891.72;5074163;28;20050;-79
2023/09/25 07:08:22;;;;;;;24.70;4.03;;;;;;;12.54;100.00;99898.31;5089607;28;20024;-80
2023/09/25 07:10:49;;;;;;;30.80;4.35;;;;;;;12.57;100.00;99910.41;5082396;28;20039;-79
2023/09/25 07:13:19;;;;;;;30.48;4.88;;;;;;;12.65;100.00;99910.38;5109821;27;20357;-80
2023/09/25 07:15:45;;;;;;;28.05;4.03;;;;;;;12.70;100.00;99912.50;5087281;28;20038;-80
2023/09/25 07:18:11;;;;;;;24.50;3.70;;;;;;;12.77;100.00;99914.31;5095513;27;20028;-79
2023/09/25 07:20:37;;;;;;;25.70;3.70;;;;;;;12.83;100.00;99922.59;5069228;28;20032;-79
2023/09/25 07:23:03;;;;;;;25.55;3.58;;;;;;;12.86;100.00;99923.06;5059084;27;20050;-79
2023/09/25 07:25:29;;;;;;;19.45;3.08;;;;;;;12.85;100.00;99920.59;5098153;27;20510;-79
2023/09/25 07:27:56;;;;;;;19.73;2.95;;;;;;;12.88;100.00;99915.75;5099051;28;20032;-79
2023/09/25 07:30:21;;;;;;;20.83;3.17;;;;;;;12.85;100.00;99929.34;5084123;27;20073;-79
2023/09/25 07:32:48;;;;;;;16.05;2.80;;;;;;;12.85;100.00;99923.25;5089312;28;20430;-79
2023/09/25 07:35:15;;;;;;;16.50;3.70;;;;;;;12.85;100.00;99925.91;5074124;28;20036;-78
2023/09/25 07:37:42;;;;;;;22.65;3.78;;;;;;;12.87;100.00;99929.19;5104875;28;20031;-78
2023/09/25 07:40:13;;;;;;;18.77;3.65;;;;;;;12.89;100.00;99941.28;5086118;27;20126;-80
2023/09/25 07:42:42;;;;;;;19.85;3.17;;;;;;;12.92;100.00;99953.38;5084862;28;20036;-79
2023/09/25 07:45:22;;;;;;;18.67;3.95;;;;;;;12.93;100.00;99946.25;5096590;28;20032;-81
2023/09/25 07:47:48;;;;;;;16.63;3.25;;;;;;;12.93;100.00;99951.56;5100631;27;20057;-79
2023/09/25 07:50:14;;;;;;;29.95;4.35;;;;;;;12.86;100.00;99960.19;5079556;27;20383;-79
2023/09/25 07:52:42;;;;;;;23.35;3.90;;;;;;;12.87;100.00;99961.00;5072041;28;20032;-80
2023/09/25 07:55:11;;;;;;;22.55;2.83;;;;;;;12.85;100.00;99963.03;5103149;27;20032;-80
2023/09/25 07:57:42;;;;;;;26.10;3.63;;;;;;;12.88;100.00;99965.34;5076803;27;20039;-80
2023/09/25 08:00:21;;;;;;;24.88;4.32;;;;;;;12.90;100.00;99965.97;5101068;28;20020;-80
2023/09/25 08:02:48;;;;;;;23.50;3.15;;;;;;;12.94;100.00;99969.13;5062922;28;20035;-80
2023/09/25 08:05:15;;;;;;;27.45;3.88;;;;;;;12.98;100.00;99970.44;5087302;28;20054;-81
2023/09/25 08:07:40;;;;;;;22.08;3.67;;;;;;;13.04;100.00;99975.06;5087785;28;20050;-79
2023/09/25 08:10:07;;;;;;;25.60;4.13;;;;;;;13.11;100.00;99962.75;5078192;28;20032;-80
2023/09/25 08:12:32;;;;;;;25.15;3.90;;;;;;;13.15;100.00;99985.28;5084208;28;20855;-80
2023/09/25 08:14:58;;;;;;;23.52;3.65;;;;;;;13.20;100.00;99989.25;5055325;28;20020;-80
2023/09/25 08:17:24;;;;;;;22.48;4.00;;;;;;;13.24;100.00;99980.78;5066305;28;20028;-80
2023/09/25 08:19:53;;;;;;;25.25;3.45;;;;;;;13.28;100.00;99987.38;5065666;28;20472;-80
2023/09/25 08:22:20;;;;;;;21.77;3.80;;;;;;;13.32;100.00;99994.97;5062788;28;20109;-80
2023/09/25 08:24:47;;;;;;;23.48;3.33;;;;;;;13.39;100.00;100007.38;5069336;28;20043;-82
2023/09/25 08:27:13;;;;;;;22.42;4.50;;;;;;;13.46;100.00;100010.19;5072924;28;20090;-79
2023/09/25 08:29:38;;;;;;;22.20;3.67;;;;;;;13.53;100.00;100010.34;5080961;28;20042;-81
2023/09/25 08:32:04;;;;;;;16.05;3.20;;;;;;;13.60;100.00;100011.28;5069115;28;20024;-82
2023/09/25 08:34:30;;;;;;;19.50;3.78;;;;;;;13.62;100.00;100011.13;5074556;28;20123;-79
2023/09/25 08:36:56;;;;;;;18.88;3.60;;;;;;;13.62;100.00;100019.91;5099061;28;20045;-81
2023/09/25 08:39:22;;;;;;;18.90;3.33;;;;;;;13.64;100.00;100012.63;5104830;28;20379;-81
2023/09/25 08:41:48;;;;;;;23.55;4.03;;;;;;;13.70;100.00;100034.13;5071365;28;20036;-80
2023/09/25 08:44:18;;;;;;;24.25;3.95;;;;;;;13.81;100.00;100030.28;5061773;28;20522;-80
2023/09/25 08:46:44;;;;;;;21.52;4.00;;;;;;;13.88;100.00;100033.88;5076753;28;20068;-81
2023/09/25 08:49:10;;;;;;;19.40;3.78;;;;;;;13.99;100.00;100024.66;5074364;28;20054;-80
2023/09/25 08:51:38;;;;;;;24.48;4.07;;;;;;;14.10;100.00;100031.38;5056390;28;20173;-80
2023/09/25 08:54:06;;;;;;;20.15;3.47;;;;;;;14.19;100.00;100026.84;5063447;28;20070;-80
2023/09/25 08:56:32;;;;;;;25.08;3.95;;;;;;;14.25;100.00;100026.13;5078861;28;20024;-81
2023/09/25 08:59:00;;;;;;;26.33;4.32;;;;;;;14.33;100.00;100019.91;5073279;28;20028;-80
2023/09/25 09:01:28;;;;;;;22.20;3.67;;;;;;;14.41;100.00;100027.00;5050955;28;20035;-82
2023/09/25 09:03:54;;;;;;;20.42;3.47;;;;;;;14.49;100.00;100035.72;5087662;28;20032;-81
2023/09/25 09:06:20;;;;;;;24.10;4.05;;;;;;;14.55;100.00;100028.88;5084642;28;20035;-79
2023/09/25 09:08:48;;;;;;;22.58;3.30;;;;;;;14.66;100.00;100027.59;5093279;28;20035;-80
2023/09/25 09:11:15;;;;;;;25.05;4.20;;;;;;;14.78;100.00;100027.94;5080671;28;20046;-81
2023/09/25 09:13:45;;;;;;;21.27;3.97;;;;;;;14.90;100.00;100031.03;5061462;28;20035;-81
2023/09/25 09:16:19;;;;;;;32.78;5.35;;;;;;;14.85;100.00;100023.59;5093313;28;20039;-79
2023/09/25 09:18:46;;;;;;;33.08;5.05;;;;;;;14.80;100.00;100030.47;5072009;28;20035;-79
2023/09/25 09:21:26;;;;;;;28.63;4.57;;;;;;;14.84;100.00;100029.09;5090125;28;20027;-80
2023/09/25 09:23:55;;;;;;;26.35;5.00;;;;;;;14.85;100.00;100034.25;5045202;28;20044;-80
2023/09/25 09:26:21;;;;;;;26.95;4.75;;;;;;;14.88;100.00;100028.56;5084955;28;20033;-81
2023/09/25 09:28:47;;;;;;;23.48;4.38;;;;;;;14.89;100.00;100042.69;5095656;28;20024;-79
2023/09/25 09:31:18;;;;;;;19.48;4.63;;;;;;;14.95;100.00;100055.25;5065546;28;20036;-78
2023/09/25 09:33:45;;;;;;;22.63;4.20;;;;;;;14.94;100.00;100053.59;5066134;28;20032;-80
2023/09/25 09:36:14;;;;;;;20.85;4.35;;;;;;;14.95;100.00;100057.09;5070538;28;20498;-79
2023/09/25 09:38:42;;;;;;;33.53;6.03;;;;;;;14.97;100.00;100066.53;5052545;28;20116;-78
2023/09/25 09:41:08;;;;;;;33.00;4.57;;;;;;;14.99;100.00;100072.50;5065985;28;20040;-80
2023/09/25 09:43:35;;;;;;;25.75;4.22;;;;;;;15.02;100.00;100065.97;5086130;28;20061;-82
2023/09/25 09:46:01;;;;;;;21.50;4.40;;;;;;;15.06;100.00;100077.09;5064671;28;20035;-81
2023/09/25 09:48:30;;;;;;;22.00;4.97;;;;;;;15.16;100.00;100088.28;5065925;28;20028;-80
2023/09/25 09:50:59;;;;;;;27.80;4.45;;;;;;;15.28;100.00;100090.50;5084753;28;20064;-83
2023/09/25 09:53:29;;;;;;;25.38;4.38;;;;;;;15.33;100.00;100094.28;5071448;28;20038;-80
2023/09/25 09:55:56;;;;;;;31.63;4.85;;;;;;;15.41;100.00;100101.34;5081026;28;20027;-82
2023/09/25 09:58:28;;;;;;;31.95;5.18;;;;;;;15.55;100.00;100090.84;5093268;28;20040;-81
2023/09/25 10:00:56;;;;;;;22.17;5.07;;;;;;;15.58;100.00;100111.78;5071720;28;20051;-81
2023/09/25 10:03:24;;;;;;;24.80;4.45;;;;;;;15.65;100.00;100106.53;5076897;28;20446;-81
2023/09/25 10:05:50;;;;;;;20.77;4.35;;;;;;;15.68;100.00;100101.66;5073448;28;20380;-80
2023/09/25 10:08:17;;;;;;;23.05;4.10;;;;;;;15.72;100.00;100105.59;5094026;28;20118;-79
2023/09/25 10:10:48;;;;;;;23.73;5.13;;;;;;;15.75;100.00;100109.75;5078029;28;20050;-81
2023/09/25 10:13:21;;;;;;;26.30;4.88;;;;;;;15.82;100.00;100101.81;5078166;28;20123;-83
2023/09/25 10:16:00;;;;;;;27.73;5.35;;;;;;;15.85;100.00;100098.75;5084794;28;20028;-82
2023/09/25 10:18:27;;;;;;;25.25;5.03;;;;;;;15.82;100.00;100102.66;5082030;28;20044;-80
2023/09/25 10:21:14;;;;;;;28.80;5.32;;;;;;;15.86;100.00;100109.25;5057373;28;20553;-80
2023/09/25 10:23:46;;;;;;;27.17;5.32;;;;;;;15.81;100.00;100103.66;5043861;28;20392;-79
2023/09/25 10:26:24;;;;;;;34.80;5.85;;;;;;;15.71;100.00;100093.31;5085333;28;20034;-80
2023/09/25 10:29:12;;;;;;;26.77;5.68;;;;;;;15.70;100.00;100082.84;5083109;28;20046;-79
2023/09/25 10:31:38;;;;;;;23.45;5.07;;;;;;;15.56;100.00;100090.66;5070014;28;20043;-82
2023/09/25 10:34:08;;;;;;;32.80;5.57;;;;;;;15.66;100.00;100098.34;5073070;28;20026;-80
2023/09/25 10:36:37;;;;;;;22.27;4.97;;;;;;;15.72;100.00;100104.75;5087567;28;20090;-80
2023/09/25 10:39:16;;;;;;;30.40;5.53;;;;;;;15.74;100.00;100108.91;5074521;28;20087;-80
2023/09/25 10:41:42;;;;;;;32.33;4.97;;;;;;;15.75;100.00;100121.22;5067240;28;20040;-79
2023/09/25 10:44:12;;;;;;;28.92;4.63;;;;;;;15.85;100.00;100122.75;5087754;28;20081;-81
2023/09/25 10:46:40;;;;;;;25.90;4.95;;;;;;;15.91;100.00;100123.84;5100345;28;20042;-80
2023/09/25 10:49:06;;;;;;;31.00;5.03;;;;;;;15.95;100.00;100111.78;5087644;28;20414;-82
2023/09/25 10:51:32;;;;;;;26.88;4.85;;;;;;;16.02;100.00;100106.56;5058671;28;20039;-81
2023/09/25 10:54:00;;;;;;;23.23;4.50;;;;;;;16.08;100.00;100113.81;5075198;28;20036;-80
2023/09/25 10:56:26;;;;;;;22.75;4.20;;;;;;;16.17;100.00;100115.34;5075006;28;20027;-79
2023/09/25 10:58:52;;;;;;;23.45;4.32;;;;;;;16.22;100.00;100120.94;5070910;28;20039;-82
2023/09/25 11:01:30;;;;;;;27.77;4.22;;;;;;;16.36;100.00;100123.72;5065009;28;20042;-81
2023/09/25 11:04:00;;;;;;;22.88;4.80;;;;;;;16.45;100.00;100124.44;5065169;28;20097;-81
2023/09/25 11:06:28;;;;;;;30.02;4.97;;;;;;;16.45;100.00;100127.91;5079943;28;20038;-79
2023/09/25 11:09:18;;;;;;;26.25;4.38;;;;;;;16.47;100.00;100125.06;5068946;28;20427;-79
2023/09/25 11:11:45;;;;;;;24.17;4.43;;;;;;;16.46;100.00;100128.75;5069945;28;20039;-82
2023/09/25 11:14:11;;;;;;;25.65;4.10;;;;;;;16.47;100.00;100131.22;5090565;28;20122;-78
2023/09/25 11:16:37;;;;;;;24.75;4.18;;;;;;;16.57;100.00;100135.41;5091349;28;20051;-81